Time;durP1;ratioP1;P1;durP2;ratioP2;P2;SDS_P1;SDS_P2;PMS_P1;PMS_P2;Temp;Humidity;BMP_temperature;BMP_pressure;BME280_temperature;BME280_humidity;BME280_pressure;Samples;Min_cycle;Max_cycle;Signal;HPM_P1;HPM_P2
2023/01/30 00:00:53;;;;;;;;;;;;;;;15.83;43.86;101283.38;4978580;28;1093;-46
2023/01/30 00:03:19;;;;;;;;;;;;;;;16.28;43.17;101281.38;4978475;28;1054;-49
2023/01/30 00:05:44;;;;;;;;;;;;;;;16.19;43.42;101286.50;4978685;28;994;-48
2023/01/30 00:08:09;;;;;;;;;;;;;;;16.29;43.45;101275.63;4978933;28;1049;-46
2023/01/30 00:10:35;;;;;;;;;;;;;;;17.50;40.38;101280.69;4974736;28;1054;-50
2023/01/30 00:13:00;;;;;;;;;;;;;;;16.22;43.09;101283.25;4969689;28;1070;-46
2023/01/30 00:15:26;;;;;;;;;;;;;;;15.85;44.05;101283.91;4977306;28;1961;-46
2023/01/30 00:17:51;;;;;;;;;;;;;;;16.44;42.77;101277.69;4978499;28;1061;-45
2023/01/30 00:20:17;;;;;;;;;;;;;;;15.71;44.26;101280.72;4978041;28;1061;-48
2023/01/30 00:22:42;;;;;;;;;;;;;;;15.49;44.22;101278.81;4977721;28;1073;-47
2023/01/30 00:25:07;;;;;;;;;;;;;;;16.41;42.85;101273.56;4965085;28;1117;-46
2023/01/30 00:27:33;;;;;;;;;;;;;;;15.57;44.41;101274.78;4968702;28;1173;-47
2023/01/30 00:29:59;;;;;;;;;;;;;;;17.44;40.77;101270.75;4957840;28;1154;-47
2023/01/30 00:32:25;;;;;;;;;;;;;;;16.56;42.29;101274.78;4978279;28;1105;-46
2023/01/30 00:34:51;;;;;;;;;;;;;;;15.81;44.07;101269.06;4977639;28;1907;-47
2023/01/30 00:37:16;;;;;;;;;;;;;;;15.72;43.83;101272.25;4978369;28;1065;-49
2023/01/30 00:39:42;;;;;;;;;;;;;;;16.63;42.46;101264.41;4965116;28;1142;-48
2023/01/30 00:47:36;;;;;;;;;;;;;;;15.98;43.62;101264.34;4978084;28;1058;-43
2023/01/30 00:50:02;;;;;;;;;;;;;;;16.37;43.38;101260.63;4977967;28;1053;-48
2023/01/30 00:52:27;;;;;;;;;;;;;;;17.85;39.68;101268.16;4975655;28;1100;-43
2023/01/30 00:54:52;;;;;;;;;;;;;;;16.24;43.01;101261.84;4966708;28;1902;-46
2023/01/30 00:57:18;;;;;;;;;;;;;;;15.79;43.87;101257.50;4975790;28;1061;-46
2023/01/30 00:59:43;;;;;;;;;;;;;;;15.53;44.09;101260.78;4966292;28;1051;-45
2023/01/30 01:02:10;;;;;;;;;;;;;;;15.43;43.82;101251.56;4947441;28;1125;-45
2023/01/30 01:04:42;;;;;;;;;;;;;;;16.42;42.78;101255.16;4969383;28;879;-46
2023/01/30 01:07:08;;;;;;;;;;;;;;;15.73;44.52;101257.44;4988295;28;1117;-47
2023/01/30 01:09:34;;;;;;;;;;;;;;;17.62;40.60;101255.69;4977317;28;1068;-44
2023/01/30 01:12:00;;;;;;;;;;;;;;;16.53;42.46;101242.34;4964606;28;1165;-47
2023/01/30 01:14:25;;;;;;;;;;;;;;;15.77;44.04;101245.94;4968222;28;1216;-45
2023/01/30 01:16:51;;;;;;;;;;;;;;;15.71;44.37;101245.91;4970698;28;1918;-47
2023/01/30 01:19:16;;;;;;;;;;;;;;;16.30;42.99;101243.53;4949637;28;1225;-46
2023/01/30 01:21:42;;;;;;;;;;;;;;;15.68;43.88;101242.84;4976143;28;1588;-44
2023/01/30 01:24:08;;;;;;;;;;;;;;;15.87;44.31;101254.34;4968812;28;1201;-47
2023/01/30 01:26:33;;;;;;;;;;;;;;;16.07;43.55;101240.84;4972230;28;1275;-45
2023/01/30 01:28:59;;;;;;;;;;;;;;;15.53;44.47;101240.75;4976802;28;873;-45
2023/01/30 01:31:24;;;;;;;;;;;;;;;17.15;41.34;101240.06;4977206;28;1089;-47
2023/01/30 01:33:50;;;;;;;;;;;;;;;15.87;43.89;101246.13;4977327;28;1049;-45
2023/01/30 01:36:16;;;;;;;;;;;;;;;17.32;40.99;101240.72;4977223;28;1913;-47
2023/01/30 01:38:42;;;;;;;;;;;;;;;16.88;41.70;101235.47;4977539;28;1041;-45
2023/01/30 01:41:09;;;;;;;;;;;;;;;16.06;43.70;101241.94;4964165;28;1277;-47
2023/01/30 01:43:35;;;;;;;;;;;;;;;15.66;44.34;101243.09;4977161;28;978;-48
2023/01/30 01:46:02;;;;;;;;;;;;;;;15.48;44.02;101246.16;4947102;28;1383;-49
2023/01/30 01:48:28;;;;;;;;;;;;;;;16.30;43.18;101238.88;4991830;28;1405;-45
2023/01/30 01:50:58;;;;;;;;;;;;;;;15.60;44.32;101241.41;4964457;28;1224;-44
2023/01/30 01:53:24;;;;;;;;;;;;;;;17.03;41.71;101240.28;4982671;28;875;-46
2023/01/30 01:55:51;;;;;;;;;;;;;;;16.05;43.45;101232.03;4985540;28;1909;-46
2023/01/30 01:58:18;;;;;;;;;;;;;;;15.64;44.00;101237.06;4982306;28;1160;-46
2023/01/30 02:00:45;;;;;;;;;;;;;;;15.33;44.36;101235.81;4964262;28;1157;-47
2023/01/30 02:03:11;;;;;;;;;;;;;;;16.14;43.63;101234.31;4992187;28;1085;-46
2023/01/30 02:05:37;;;;;;;;;;;;;;;15.72;44.33;101233.88;4991123;28;1044;-45
2023/01/30 02:08:03;;;;;;;;;;;;;;;15.71;44.51;101231.34;4991752;28;1060;-47
2023/01/30 02:10:47;;;;;;;;;;;;;;;16.88;41.75;101227.25;4973708;28;1089;-44
2023/01/30 02:13:13;;;;;;;;;;;;;;;15.67;44.46;101225.56;4957922;29;1054;-46
2023/01/30 02:15:39;;;;;;;;;;;;;;;15.66;44.75;101225.84;4970364;28;1898;-44
2023/01/30 02:18:05;;;;;;;;;;;;;;;16.31;42.93;101224.03;4960612;28;875;-48
2023/01/30 02:20:49;;;;;;;;;;;;;;;15.63;44.01;101229.09;4975773;28;1250;-45
2023/01/30 02:23:24;;;;;;;;;;;;;;;17.01;41.65;101221.31;4991688;28;1135;-44
2023/01/30 02:25:49;;;;;;;;;;;;;;;15.82;43.86;101224.13;4959323;28;1201;-48
2023/01/30 02:28:18;;;;;;;;;;;;;;;16.72;42.29;101218.91;4963919;28;1161;-45
2023/01/30 02:31:01;;;;;;;;;;;;;;;16.78;41.78;101217.00;4959630;28;1200;-46
2023/01/30 02:33:44;;;;;;;;;;;;;;;15.77;44.25;101222.13;4956368;28;1126;-46
2023/01/30 02:36:19;;;;;;;;;;;;;;;16.99;41.66;101211.69;4954851;28;1914;-49
2023/01/30 02:38:51;;;;;;;;;;;;;;;15.77;44.21;101221.28;4982907;28;1140;-46
2023/01/30 02:41:26;;;;;;;;;;;;;;;15.43;44.23;101222.28;4969585;28;1105;-45
2023/01/30 02:43:52;;;;;;;;;;;;;;;15.65;44.04;101227.72;4967366;28;1831;-45
2023/01/30 02:46:23;;;;;;;;;;;;;;;16.33;43.05;101221.88;4965496;28;1118;-48
2023/01/30 02:48:50;;;;;;;;;;;;;;;15.53;44.47;101224.31;4994750;28;1111;-46
2023/01/30 02:51:23;;;;;;;;;;;;;;;17.26;41.04;101215.13;4965951;28;1169;-46
2023/01/30 02:53:48;;;;;;;;;;;;;;;16.02;43.53;101220.75;4966054;28;1331;-49
2023/01/30 02:56:14;;;;;;;;;;;;;;;16.97;41.65;101222.94;4994662;28;1981;-50
2023/01/30 02:58:44;;;;;;;;;;;;;;;17.07;41.14;101225.75;4950385;29;1156;-47
2023/01/30 03:01:15;;;;;;;;;;;;;;;16.07;43.51;101212.56;4953849;28;1209;-47
2023/01/30 03:03:59;;;;;;;;;;;;;;;15.60;44.17;101218.63;4978655;28;1235;-45
2023/01/30 03:06:28;;;;;;;;;;;;;;;16.22;43.11;101214.66;4984684;28;1112;-45
2023/01/30 03:09:13;;;;;;;;;;;;;;;15.66;44.00;101221.16;4959839;28;1195;-49
2023/01/30 03:11:41;;;;;;;;;;;;;;;17.54;40.59;101217.72;4979787;28;1050;-46
2023/01/30 03:14:08;;;;;;;;;;;;;;;16.01;43.70;101222.69;4988232;28;1116;-47
2023/01/30 03:16:37;;;;;;;;;;;;;;;15.64;44.14;101220.59;4971614;28;1918;-48
2023/01/30 03:19:04;;;;;;;;;;;;;;;15.42;44.26;101219.75;4970933;28;1184;-49
2023/01/30 03:21:30;;;;;;;;;;;;;;;16.16;43.51;101215.66;4974023;28;1014;-49
2023/01/30 03:23:56;;;;;;;;;;;;;;;15.53;44.53;101216.91;4979256;28;1053;-45
2023/01/30 03:26:23;;;;;;;;;;;;;;;15.29;44.48;101213.59;4965287;28;1208;-45
2023/01/30 03:28:49;;;;;;;;;;;;;;;16.72;42.35;101212.59;4954508;29;1461;-44
2023/01/30 03:31:15;;;;;;;;;;;;;;;15.61;44.51;101220.28;4972371;28;1423;-44
2023/01/30 03:33:41;;;;;;;;;;;;;;;15.64;44.38;101214.28;4954668;29;1569;-45
2023/01/30 03:36:07;;;;;;;;;;;;;;;15.99;43.76;101208.41;4973571;28;1914;-46
2023/01/30 03:38:33;;;;;;;;;;;;;;;15.66;44.52;101218.44;4977943;28;1435;-49
2023/01/30 03:40:59;;;;;;;;;;;;;;;17.55;40.32;101213.88;4966165;28;1165;-45
2023/01/30 03:43:24;;;;;;;;;;;;;;;16.08;43.29;101203.28;4970078;28;1396;-47
2023/01/30 03:45:49;;;;;;;;;;;;;;;15.57;44.35;101214.47;4972418;28;1066;-43
2023/01/30 03:48:15;;;;;;;;;;;;;;;16.03;43.54;101209.53;4950259;28;1266;-45
2023/01/30 03:50:40;;;;;;;;;;;;;;;15.94;43.87;101208.34;4961797;28;1085;-48
2023/01/30 03:53:06;;;;;;;;;;;;;;;16.86;41.96;101207.47;4986885;28;1195;-43
2023/01/30 03:55:33;;;;;;;;;;;;;;;17.71;40.08;101198.25;4955520;28;1898;-42
2023/01/30 03:57:58;;;;;;;;;;;;;;;16.22;43.03;101199.00;4965886;28;1011;-49
2023/01/30 04:00:27;;;;;;;;;;;;;;;15.73;44.05;101202.59;4961290;28;1164;-44
2023/01/30 04:02:53;;;;;;;;;;;;;;;16.77;42.16;101196.97;4977654;28;1092;-45
2023/01/30 04:05:19;;;;;;;;;;;;;;;15.77;43.92;101191.13;4960573;28;1030;-45
2023/01/30 04:07:50;;;;;;;;;;;;;;;16.05;43.66;101196.38;4993592;28;1160;-44
2023/01/30 04:10:17;;;;;;;;;;;;;;;16.12;43.36;101198.06;4978635;28;1085;-47
2023/01/30 04:12:43;;;;;;;;;;;;;;;15.69;43.94;101190.50;4953582;29;1344;-48
2023/01/30 04:15:09;;;;;;;;;;;;;;;16.90;41.79;101197.59;4956222;28;1906;-44
2023/01/30 04:17:48;;;;;;;;;;;;;;;15.72;43.98;101191.91;4960672;28;1361;-45
2023/01/30 04:20:34;;;;;;;;;;;;;;;15.55;44.68;101205.69;4967332;28;1290;-51
2023/01/30 04:23:01;;;;;;;;;;;;;;;16.39;42.82;101198.88;4981463;28;1247;-54
2023/01/30 04:25:26;;;;;;;;;;;;;;;15.61;44.15;101204.66;4976299;28;1154;-48
2023/01/30 04:27:51;;;;;;;;;;;;;;;16.60;42.47;101199.03;4978128;28;1010;-54
2023/01/30 04:30:21;;;;;;;;;;;;;;;15.92;43.72;101205.00;4960323;28;1534;-48
2023/01/30 04:32:51;;;;;;;;;;;;;;;16.15;43.51;101205.81;4977373;28;1143;-58
2023/01/30 04:35:16;;;;;;;;;;;;;;;17.01;41.44;101210.34;4959836;28;1986;-56
2023/01/30 04:37:42;;;;;;;;;;;;;;;15.80;43.79;101196.94;4986791;28;1171;-52
2023/01/30 04:40:10;;;;;;;;;;;;;;;15.55;43.96;101203.75;4947988;28;1336;-56
2023/01/30 04:42:36;;;;;;;;;;;;;;;16.77;42.00;101210.72;4960456;28;1360;-57
2023/01/30 04:45:22;;;;;;;;;;;;;;;15.64;44.06;101206.91;4947608;28;1261;-59
2023/01/30 04:47:49;;;;;;;;;;;;;;;17.43;40.90;101209.44;4951575;29;1404;-57
2023/01/30 04:50:15;;;;;;;;;;;;;;;16.70;42.08;101204.59;4970321;28;1214;-53
2023/01/30 04:52:40;;;;;;;;;;;;;;;15.86;43.65;101200.56;4964706;28;1110;-50
2023/01/30 04:55:07;;;;;;;;;;;;;;;16.08;43.55;101198.59;4947536;28;1957;-53
2023/01/30 04:57:32;;;;;;;;;;;;;;;16.18;42.93;101202.53;4985998;28;1421;-50
2023/01/30 04:59:58;;;;;;;;;;;;;;;15.68;43.88;101193.50;4951366;28;1298;-49
2023/01/30 05:02:23;;;;;;;;;;;;;;;16.28;42.77;101202.63;4955517;28;1312;-49
2023/01/30 05:04:49;;;;;;;;;;;;;;;15.83;43.46;101209.31;4957849;28;1346;-54
2023/01/30 05:07:14;;;;;;;;;;;;;;;16.73;41.95;101200.50;4956033;28;1287;-50
2023/01/30 05:09:40;;;;;;;;;;;;;;;17.27;40.34;101208.53;4953342;28;986;-50
2023/01/30 05:12:05;;;;;;;;;;;;;;;16.05;42.98;101198.31;4958371;28;1205;-52
2023/01/30 05:14:31;;;;;;;;;;;;;;;16.41;42.66;101196.69;4958487;28;1140;-51
2023/01/30 05:16:56;;;;;;;;;;;;;;;16.19;42.74;101198.72;4958414;28;1981;-50
2023/01/30 05:19:22;;;;;;;;;;;;;;;15.75;43.64;101199.59;4960231;28;1159;-54
2023/01/30 05:21:47;;;;;;;;;;;;;;;15.41;44.24;101208.00;4957348;28;967;-48
2023/01/30 05:24:13;;;;;;;;;;;;;;;16.17;42.86;101203.63;4958107;28;1041;-49
2023/01/30 05:26:38;;;;;;;;;;;;;;;15.53;43.90;101203.22;4957693;28;1158;-49
2023/01/30 05:29:03;;;;;;;;;;;;;;;15.57;43.38;101195.28;4958529;28;1145;-48
2023/01/30 05:31:29;;;;;;;;;;;;;;;16.17;41.91;101200.88;4959995;28;878;-49
2023/01/30 05:33:54;;;;;;;;;;;;;;;15.59;43.11;101198.59;4957764;28;1193;-55
2023/01/30 05:36:20;;;;;;;;;;;;;;;16.51;41.35;101200.59;4957693;28;1914;-54
2023/01/30 05:38:46;;;;;;;;;;;;;;;15.71;42.63;101198.47;4957361;28;1237;-56
2023/01/30 05:41:12;;;;;;;;;;;;;;;15.40;42.86;101204.44;4956700;28;1250;-55
2023/01/30 05:43:37;;;;;;;;;;;;;;;16.84;40.35;101198.66;4957960;28;836;-53
2023/01/30 05:46:03;;;;;;;;;;;;;;;15.84;42.36;101205.50;4953991;28;1442;-55
2023/01/30 05:48:29;;;;;;;;;;;;;;;17.50;39.03;101206.44;4958515;28;1093;-51
2023/01/30 05:50:55;;;;;;;;;;;;;;;17.48;38.70;101203.13;4940418;28;1042;-56
2023/01/30 05:53:21;;;;;;;;;;;;;;;16.15;41.65;101206.63;4958129;28;1137;-57
2023/01/30 05:55:53;;;;;;;;;;;;;;;15.81;42.54;101206.00;4955539;28;1969;-56
2023/01/30 05:58:19;;;;;;;;;;;;;;;16.89;40.27;101206.97;4940758;29;987;-56
2023/01/30 06:00:44;;;;;;;;;;;;;;;15.82;42.46;101207.66;4953461;28;1311;-56
2023/01/30 06:03:10;;;;;;;;;;;;;;;16.45;41.73;101207.16;4957778;28;891;-56
2023/01/30 06:05:36;;;;;;;;;;;;;;;16.25;41.86;101203.16;4962855;28;1074;-56
2023/01/30 06:08:01;;;;;;;;;;;;;;;16.40;41.88;101208.75;4956965;28;1134;-56
2023/01/30 06:10:27;;;;;;;;;;;;;;;17.68;38.92;101202.34;4970482;28;1086;-55
2023/01/30 06:12:52;;;;;;;;;;;;;;;16.31;41.84;101207.56;4967618;28;1073;-55
2023/01/30 06:15:18;;;;;;;;;;;;;;;17.32;40.08;101210.50;4976413;28;1898;-51
2023/01/30 06:17:43;;;;;;;;;;;;;;;16.90;40.68;101205.84;4982165;28;1235;-52
2023/01/30 06:20:09;;;;;;;;;;;;;;;17.45;39.47;101204.47;4969895;28;1193;-51
2023/01/30 06:22:34;;;;;;;;;;;;;;;16.71;41.00;101195.28;4970661;28;1102;-56
2023/01/30 06:25:00;;;;;;;;;;;;;;;16.21;42.05;101199.28;4964704;28;1250;-49
2023/01/30 06:27:25;;;;;;;;;;;;;;;15.93;42.73;101197.63;4956719;28;924;-48
2023/01/30 06:29:51;;;;;;;;;;;;;;;15.66;43.40;101199.22;4977664;28;1112;-58
2023/01/30 06:32:16;;;;;;;;;;;;;;;15.47;43.81;101200.66;4970543;28;1109;-51
2023/01/30 06:34:41;;;;;;;;;;;;;;;15.29;44.06;101191.69;4977496;28;1017;-52
2023/01/30 06:37:07;;;;;;;;;;;;;;;15.15;44.43;101201.34;4985078;28;1974;-54
2023/01/30 06:39:32;;;;;;;;;;;;;;;16.25;42.30;101192.16;4977999;28;1202;-53
2023/01/30 06:41:58;;;;;;;;;;;;;;;17.27;40.01;101191.22;4969487;28;1069;-56
2023/01/30 06:44:23;;;;;;;;;;;;;;;16.13;42.30;101188.75;4967202;28;1216;-56
2023/01/30 06:46:49;;;;;;;;;;;;;;;15.60;43.43;101189.31;4971562;28;1033;-52
2023/01/30 06:49:14;;;;;;;;;;;;;;;15.30;44.24;101187.84;4973899;28;1003;-55
2023/01/30 06:51:39;;;;;;;;;;;;;;;15.90;43.02;101185.25;4969402;28;1217;-58
2023/01/30 06:54:05;;;;;;;;;;;;;;;17.27;39.94;101185.72;4966791;28;1115;-56
2023/01/30 06:56:30;;;;;;;;;;;;;;;16.63;41.00;101197.69;4971577;28;1981;-58
2023/01/30 06:58:56;;;;;;;;;;;;;;;15.85;43.07;101187.94;4966504;28;1001;-56
2023/01/30 07:01:21;;;;;;;;;;;;;;;15.51;43.92;101186.16;4969114;28;1398;-54
2023/01/30 07:03:47;;;;;;;;;;;;;;;16.74;41.00;101183.75;4973827;28;1137;-55
2023/01/30 07:06:12;;;;;;;;;;;;;;;16.98;40.34;101185.31;4968659;28;1058;-55
2023/01/30 07:08:39;;;;;;;;;;;;;;;16.04;42.35;101178.25;4978093;28;1082;-54
2023/01/30 07:11:05;;;;;;;;;;;;;;;15.63;43.40;101180.56;4969295;28;1022;-52
2023/01/30 07:13:30;;;;;;;;;;;;;;;15.37;44.34;101180.25;4964895;28;1037;-58
2023/01/30 07:15:56;;;;;;;;;;;;;;;16.00;42.79;101185.34;4946597;28;1965;-55
2023/01/30 07:18:21;;;;;;;;;;;;;;;17.34;40.06;101175.31;4964308;28;1162;-50
2023/01/30 07:20:47;;;;;;;;;;;;;;;16.31;42.03;101177.38;4972261;28;1112;-55
2023/01/30 07:23:12;;;;;;;;;;;;;;;15.73;43.44;101179.84;4975102;28;1126;-55
2023/01/30 07:25:38;;;;;;;;;;;;;;;15.43;43.95;101181.16;4979175;28;1019;-56
2023/01/30 07:28:03;;;;;;;;;;;;;;;16.50;41.70;101179.75;4972524;28;1030;-55
2023/01/30 07:30:30;;;;;;;;;;;;;;;17.13;40.08;101177.13;4978626;28;1041;-53
2023/01/30 07:32:56;;;;;;;;;;;;;;;16.03;42.54;101181.25;4977067;28;907;-54
2023/01/30 07:35:22;;;;;;;;;;;;;;;15.60;43.55;101177.50;4970734;28;1894;-56
2023/01/30 07:37:47;;;;;;;;;;;;;;;15.65;43.74;101178.38;4960055;28;1125;-55
2023/01/30 07:40:13;;;;;;;;;;;;;;;17.21;40.06;101186.81;4967007;28;1094;-55
2023/01/30 07:42:39;;;;;;;;;;;;;;;16.51;41.43;101170.41;4963258;28;1105;-55
2023/01/30 07:45:04;;;;;;;;;;;;;;;15.82;42.97;101170.13;4956448;28;1327;-53
2023/01/30 07:47:30;;;;;;;;;;;;;;;15.57;43.78;101170.63;4960170;28;908;-52
2023/01/30 07:49:55;;;;;;;;;;;;;;;16.71;41.23;101178.78;4958741;28;1639;-54
2023/01/30 07:52:21;;;;;;;;;;;;;;;17.25;39.86;101165.91;4973794;28;1054;-53
2023/01/30 07:54:46;;;;;;;;;;;;;;;16.14;42.31;101169.28;4959628;28;1501;-49
2023/01/30 07:57:12;;;;;;;;;;;;;;;15.70;43.43;101170.22;4961148;28;1911;-48
2023/01/30 07:59:37;;;;;;;;;;;;;;;15.45;43.89;101172.69;4969128;28;1359;-51
2023/01/30 08:02:02;;;;;;;;;;;;;;;15.43;44.33;101163.88;4965788;28;1184;-53
2023/01/30 08:04:28;;;;;;;;;;;;;;;17.05;40.58;101167.47;4978660;28;1041;-52
2023/01/30 08:06:53;;;;;;;;;;;;;;;16.97;40.56;101161.66;4965181;28;1165;-52
2023/01/30 08:09:19;;;;;;;;;;;;;;;16.01;42.55;101164.25;4966615;28;1395;-54
2023/01/30 08:11:44;;;;;;;;;;;;;;;15.62;43.64;101162.47;4966270;28;1090;-52
2023/01/30 08:14:10;;;;;;;;;;;;;;;15.48;43.98;101156.53;4968305;28;1452;-52
2023/01/30 08:16:35;;;;;;;;;;;;;;;17.09;40.58;101162.28;4965727;28;1974;-53
2023/01/30 08:19:02;;;;;;;;;;;;;;;16.90;40.66;101156.41;4993118;28;1255;-57
2023/01/30 08:21:28;;;;;;;;;;;;;;;16.01;42.82;101148.63;4976820;28;1181;-54
2023/01/30 08:23:53;;;;;;;;;;;;;;;15.64;43.46;101145.75;4963071;28;916;-53
2023/01/30 08:26:19;;;;;;;;;;;;;;;15.40;44.06;101149.63;4962892;28;1050;-53
2023/01/30 08:28:44;;;;;;;;;;;;;;;17.03;40.65;101144.94;4978452;28;1132;-54
2023/01/30 08:31:10;;;;;;;;;;;;;;;17.07;40.42;101137.81;4977337;28;1010;-50
2023/01/30 08:33:36;;;;;;;;;;;;;;;16.05;42.71;101130.53;4989408;28;1065;-51
2023/01/30 08:36:01;;;;;;;;;;;;;;;15.62;43.34;101124.06;4957567;28;1971;-53
2023/01/30 08:38:26;;;;;;;;;;;;;;;15.99;42.76;101131.59;4958063;28;1269;-49
2023/01/30 08:40:52;;;;;;;;;;;;;;;17.43;39.57;101132.47;4960027;28;1221;-54
2023/01/30 08:43:17;;;;;;;;;;;;;;;16.51;41.34;101126.47;4957447;28;1037;-54
2023/01/30 08:45:43;;;;;;;;;;;;;;;15.89;42.91;101120.53;4958673;29;1188;-53
2023/01/30 08:48:08;;;;;;;;;;;;;;;15.55;43.86;101113.31;4957974;28;1247;-50
2023/01/30 08:50:34;;;;;;;;;;;;;;;15.88;43.16;101111.47;4941657;29;1029;-53
2023/01/30 08:53:04;;;;;;;;;;;;;;;17.33;39.84;101107.69;4959044;28;1242;-51
2023/01/30 08:55:29;;;;;;;;;;;;;;;16.48;41.73;101096.81;4955665;28;1971;-54
2023/01/30 08:57:55;;;;;;;;;;;;;;;15.87;43.12;101098.03;4957074;28;1284;-53
2023/01/30 09:00:20;;;;;;;;;;;;;;;15.57;43.67;101099.34;4957285;29;1444;-48
2023/01/30 09:02:46;;;;;;;;;;;;;;;16.83;41.12;101092.63;4958048;28;1240;-54
2023/01/30 09:05:11;;;;;;;;;;;;;;;17.37;39.84;101092.28;4957033;29;1362;-52
2023/01/30 09:07:37;;;;;;;;;;;;;;;16.28;42.19;101084.63;4940259;29;1355;-51
2023/01/30 09:10:02;;;;;;;;;;;;;;;15.80;43.25;101075.50;4957634;29;1350;-52
2023/01/30 09:12:28;;;;;;;;;;;;;;;15.48;44.01;101079.00;4957426;29;1358;-52
2023/01/30 09:14:54;;;;;;;;;;;;;;;15.83;43.32;101074.97;4956881;29;1911;-48
2023/01/30 09:17:20;;;;;;;;;;;;;;;17.30;40.12;101064.25;4969469;28;1099;-53
2023/01/30 09:19:45;;;;;;;;;;;;;;;16.91;40.67;101072.91;4977029;28;1054;-52
2023/01/30 09:22:11;;;;;;;;;;;;;;;16.12;42.56;101066.38;4958010;28;1244;-52
2023/01/30 09:24:36;;;;;;;;;;;;;;;15.71;43.60;101062.22;4965500;28;958;-53
2023/01/30 09:27:02;;;;;;;;;;;;;;;15.93;43.19;101053.09;4964681;28;1146;-52
2023/01/30 09:29:27;;;;;;;;;;;;;;;17.27;40.16;101057.38;4977416;28;1068;-54
2023/01/30 09:31:55;;;;;;;;;;;;;;;16.23;42.31;101051.69;4976924;28;1120;-50
2023/01/30 09:34:26;;;;;;;;;;;;;;;15.72;43.48;101055.66;4970333;28;1117;-53
2023/01/30 09:36:51;;;;;;;;;;;;;;;15.48;44.09;101051.59;4971955;28;1914;-50
2023/01/30 09:39:17;;;;;;;;;;;;;;;17.05;40.72;101049.34;4958811;28;1385;-50
2023/01/30 09:41:45;;;;;;;;;;;;;;;16.92;40.60;101036.94;4957007;28;1238;-50
2023/01/30 09:44:14;;;;;;;;;;;;;;;16.07;42.77;101032.38;4945274;28;836;-52
2023/01/30 09:46:42;;;;;;;;;;;;;;;15.66;43.73;101032.00;4956909;28;1026;-52
2023/01/30 09:49:18;;;;;;;;;;;;;;;15.40;44.16;101018.09;4938919;29;1462;-52
2023/01/30 09:51:44;;;;;;;;;;;;;;;17.02;40.60;101021.59;4969773;28;1513;-53
2023/01/30 09:54:17;;;;;;;;;;;;;;;16.85;40.97;101008.88;4956878;28;1319;-52
2023/01/30 09:56:42;;;;;;;;;;;;;;;15.99;42.77;101002.69;4969099;28;1914;-54
2023/01/30 09:59:24;;;;;;;;;;;;;;;15.60;43.81;101002.91;4955145;28;1615;-52
2023/01/30 10:02:04;;;;;;;;;;;;;;;17.07;40.65;100996.88;4970394;28;1397;-52
2023/01/30 10:04:34;;;;;;;;;;;;;;;16.93;40.80;100993.81;4955924;28;1273;-51
2023/01/30 10:07:02;;;;;;;;;;;;;;;16.05;42.84;100981.59;4958023;28;1306;-53
2023/01/30 10:09:33;;;;;;;;;;;;;;;15.71;43.29;100979.97;4958754;28;1070;-52
2023/01/30 10:12:30;;;;;;;;;;;;;;;15.64;43.79;100979.38;4946055;28;1138;-49
2023/01/30 10:15:05;;;;;;;;;;;;;;;17.42;39.89;100971.34;4931380;29;1935;-53
2023/01/30 10:17:43;;;;;;;;;;;;;;;16.47;41.67;100966.19;4954410;28;1023;-50
2023/01/30 10:20:38;;;;;;;;;;;;;;;15.85;43.21;100957.59;4962965;28;1024;-51
2023/01/30 10:23:03;;;;;;;;;;;;;;;15.51;43.91;100955.13;4952289;28;1273;-49
2023/01/30 10:25:33;;;;;;;;;;;;;;;16.40;42.08;100953.50;4961918;28;1156;-54
2023/01/30 10:28:19;;;;;;;;;;;;;;;17.47;39.63;100953.22;4947952;29;1113;-47
2023/01/30 10:30:45;;;;;;;;;;;;;;;16.22;42.15;100945.75;4958261;28;1627;-51
2023/01/30 10:33:43;;;;;;;;;;;;;;;15.79;43.32;100934.81;4945174;28;1063;-53
2023/01/30 10:36:13;;;;;;;;;;;;;;;15.47;44.03;100929.34;4959600;28;1958;-53
2023/01/30 10:38:46;;;;;;;;;;;;;;;16.87;40.80;100921.53;4995345;28;1144;-48
2023/01/30 10:41:32;;;;;;;;;;;;;;;17.29;39.89;100922.41;4960139;28;1547;-51
2023/01/30 10:44:03;;;;;;;;;;;;;;;16.19;42.33;100913.38;4977232;28;1110;-54
2023/01/30 10:46:47;;;;;;;;;;;;;;;15.81;43.05;100912.59;4963143;28;1098;-51
2023/01/30 10:49:14;;;;;;;;;;;;;;;15.50;43.74;100905.00;4960863;28;1188;-52
2023/01/30 10:51:58;;;;;;;;;;;;;;;16.76;41.20;100911.66;4949589;28;1265;-53
2023/01/30 10:54:24;;;;;;;;;;;;;;;17.12;40.29;100892.47;4968311;28;1185;-50
2023/01/30 10:57:16;;;;;;;;;;;;;;;16.17;42.14;100890.84;4979679;28;1910;-52
2023/01/30 10:59:55;;;;;;;;;;;;;;;15.74;43.57;100890.91;4955500;28;1126;-51
2023/01/30 11:02:24;;;;;;;;;;;;;;;16.22;42.55;100891.69;4981915;28;1192;-53
2023/01/30 11:04:54;;;;;;;;;;;;;;;17.57;39.67;100876.22;4980017;28;1017;-54
2023/01/30 11:07:19;;;;;;;;;;;;;;;16.72;40.92;100883.88;4993608;28;1052;-56
2023/01/30 11:09:45;;;;;;;;;;;;;;;16.10;42.34;100866.41;4994231;28;864;-56
2023/01/30 11:12:11;;;;;;;;;;;;;;;15.69;43.43;100863.44;4966617;28;1216;-57
2023/01/30 11:14:55;;;;;;;;;;;;;;;16.18;42.39;100859.59;4963678;28;1319;-53
2023/01/30 11:17:26;;;;;;;;;;;;;;;17.45;39.76;100852.59;4967478;28;970;-54
2023/01/30 11:19:53;;;;;;;;;;;;;;;16.30;42.02;100846.47;4974610;28;1087;-54
2023/01/30 11:22:19;;;;;;;;;;;;;;;15.86;42.88;100841.34;4946089;29;963;-48
2023/01/30 11:24:45;;;;;;;;;;;;;;;15.60;43.37;100832.97;4967580;28;986;-50
2023/01/30 11:27:11;;;;;;;;;;;;;;;16.16;42.53;100828.84;4959423;29;1194;-51
2023/01/30 11:29:39;;;;;;;;;;;;;;;17.48;39.62;100826.47;4955371;29;1383;-56
2023/01/30 11:32:10;;;;;;;;;;;;;;;16.42;41.68;100825.09;4972524;28;1232;-50
2023/01/30 11:34:35;;;;;;;;;;;;;;;15.95;42.87;100816.97;4981954;28;986;-58
2023/01/30 11:37:13;;;;;;;;;;;;;;;15.60;43.64;100813.78;4964065;28;1902;-56
2023/01/30 11:39:38;;;;;;;;;;;;;;;17.07;40.41;100816.38;4976699;28;1088;-54
2023/01/30 11:42:09;;;;;;;;;;;;;;;16.97;40.62;100816.38;4942404;29;1479;-58
2023/01/30 11:44:34;;;;;;;;;;;;;;;16.12;42.43;100819.50;4959314;28;1350;-57
2023/01/30 11:47:01;;;;;;;;;;;;;;;15.71;43.24;100810.00;4959622;29;1335;-55
2023/01/30 11:49:27;;;;;;;;;;;;;;;15.82;43.45;100805.44;4959679;28;1540;-53
2023/01/30 11:51:53;;;;;;;;;;;;;;;17.38;39.69;100797.09;4963181;28;1346;-54
2023/01/30 11:54:19;;;;;;;;;;;;;;;16.45;41.65;100796.25;4973824;28;1145;-56
2023/01/30 11:56:48;;;;;;;;;;;;;;;15.93;42.76;100794.50;4958628;28;1906;-57
2023/01/30 11:59:21;;;;;;;;;;;;;;;15.58;43.78;100794.03;4957217;28;1257;-57
2023/01/30 12:01:46;;;;;;;;;;;;;;;15.35;44.33;100790.63;4949526;28;1126;-54
2023/01/30 12:04:11;;;;;;;;;;;;;;;16.91;40.73;100788.09;4976778;28;978;-53
2023/01/30 12:06:38;;;;;;;;;;;;;;;17.32;39.56;100781.72;4993450;28;1116;-50
2023/01/30 12:09:03;;;;;;;;;;;;;;;16.25;42.04;100775.91;4984797;28;1056;-53
2023/01/30 12:11:49;;;;;;;;;;;;;;;15.79;42.95;100777.69;4972157;28;1178;-49
2023/01/30 12:14:23;;;;;;;;;;;;;;;16.00;42.78;100779.41;4959482;28;1606;-51
2023/01/30 12:16:59;;;;;;;;;;;;;;;17.44;39.60;100765.72;4960451;28;1917;-55
2023/01/30 12:19:30;;;;;;;;;;;;;;;16.33;42.02;100769.09;4957448;28;1272;-55
2023/01/30 12:22:10;;;;;;;;;;;;;;;15.86;43.01;100761.81;4944511;29;1249;-52
2023/01/30 12:24:40;;;;;;;;;;;;;;;15.50;43.81;100759.75;4942325;29;1079;-51
2023/01/30 12:27:11;;;;;;;;;;;;;;;16.57;41.61;100757.56;4943118;28;1272;-56
2023/01/30 12:29:37;;;;;;;;;;;;;;;17.30;39.82;100753.69;4984734;28;1149;-64
2023/01/30 12:32:10;;;;;;;;;;;;;;;16.24;41.93;100752.34;4988814;28;1002;-58
2023/01/30 12:34:36;;;;;;;;;;;;;;;15.78;42.99;100748.59;4969077;28;1169;-58
2023/01/30 12:37:07;;;;;;;;;;;;;;;15.48;43.91;100741.91;4987008;28;1906;-59
2023/01/30 12:39:40;;;;;;;;;;;;;;;15.48;43.74;100739.97;4968668;28;1195;-58
2023/01/30 12:42:06;;;;;;;;;;;;;;;17.15;40.09;100737.22;4980024;28;1231;-61
2023/01/30 12:44:50;;;;;;;;;;;;;;;16.83;40.46;100730.94;4976058;28;1080;-59
2023/01/30 12:47:15;;;;;;;;;;;;;;;15.99;42.48;100738.56;4958592;29;1197;-62
2023/01/30 12:49:50;;;;;;;;;;;;;;;15.59;43.64;100738.13;4958509;28;1206;-64
2023/01/30 12:52:15;;;;;;;;;;;;;;;16.00;42.89;100732.78;4986903;28;1318;-64
2023/01/30 12:54:59;;;;;;;;;;;;;;;17.51;39.94;100734.38;4955205;28;972;-63
2023/01/30 12:57:28;;;;;;;;;;;;;;;16.92;40.86;100720.25;4972715;28;1064;-65